sensor_id;sensor_type;location;lat;lon;timestamp;temperature;humidity
21039;DHT22;10678;51.002;4.786;2023-03-23T00:00:51;14.20;99.90
21039;DHT22;10678;51.002;4.786;2023-03-23T00:03:16;14.10;99.90
21039;DHT22;10678;51.002;4.786;2023-03-23T00:05:42;14.00;99.90
21039;DHT22;10678;51.002;4.786;2023-03-23T00:08:19;14.10;99.90
21039;DHT22;10678;51.002;4.786;2023-03-23T00:10:52;14.30;99.90
21039;DHT22;10678;51.002;4.786;2023-03-23T00:13:18;14.20;99.90
21039;DHT22;10678;51.002;4.786;2023-03-23T00:15:46;14.20;99.90
21039;DHT22;10678;51.002;4.786;2023-03-23T00:18:18;14.20;99.90
21039;DHT22;10678;51.002;4.786;2023-03-23T00:23:18;14.30;99.90
21039;DHT22;10678;51.002;4.786;2023-03-23T00:25:48;14.20;99.90
21039;DHT22;10678;51.002;4.786;2023-03-23T00:28:15;14.20;99.90
21039;DHT22;10678;51.002;4.786;2023-03-23T00:30:41;14.00;99.90
21039;DHT22;10678;51.002;4.786;2023-03-23T00:33:08;14.00;99.90
21039;DHT22;10678;51.002;4.786;2023-03-23T00:35:34;14.20;99.90
21039;DHT22;10678;51.002;4.786;2023-03-23T00:38:03;14.20;99.90
21039;DHT22;10678;51.002;4.786;2023-03-23T00:40:29;14.30;99.90
21039;DHT22;10678;51.002;4.786;2023-03-23T00:42:56;14.30;99.90
21039;DHT22;10678;51.002;4.786;2023-03-23T00:45:21;14.30;99.90
21039;DHT22;10678;51.002;4.786;2023-03-23T00:47:49;14.40;99.90
21039;DHT22;10678;51.002;4.786;2023-03-23T00:50:16;14.30;99.90
21039;DHT22;10678;51.002;4.786;2023-03-23T00:52:43;14.20;99.90
21039;DHT22;10678;51.002;4.786;2023-03-23T00:55:09;14.20;99.90
21039;DHT22;10678;51.002;4.786;2023-03-23T00:57:35;14.20;99.90
21039;DHT22;10678;51.002;4.786;2023-03-23T01:00:01;14.20;99.90
21039;DHT22;10678;51.002;4.786;2023-03-23T01:02:27;14.30;99.90
21039;DHT22;10678;51.002;4.786;2023-03-23T01:04:53;14.30;99.90
21039;DHT22;10678;51.002;4.786;2023-03-23T01:07:21;14.20;99.90
21039;DHT22;10678;51.002;4.786;2023-03-23T01:09:48;14.10;99.90
21039;DHT22;10678;51.002;4.786;2023-03-23T01:12:14;14.30;99.90
21039;DHT22;10678;51.002;4.786;2023-03-23T01:14:41;14.30;99.90
21039;DHT22;10678;51.002;4.786;2023-03-23T01:17:07;14.20;99.90
21039;DHT22;10678;51.002;4.786;2023-03-23T01:19:32;14.30;99.90
21039;DHT22;10678;51.002;4.786;2023-03-23T01:21:58;14.30;99.90
21039;DHT22;10678;51.002;4.786;2023-03-23T01:24:24;14.40;99.90
21039;DHT22;10678;51.002;4.786;2023-03-23T01:26:49;14.30;99.90
21039;DHT22;10678;51.002;4.786;2023-03-23T01:29:15;14.40;99.90
21039;DHT22;10678;51.002;4.786;2023-03-23T01:31:40;14.50;99.90
21039;DHT22;10678;51.002;4.786;2023-03-23T01:34:08;14.50;99.90
21039;DHT22;10678;51.002;4.786;2023-03-23T01:36:35;14.40;99.90
21039;DHT22;10678;51.002;4.786;2023-03-23T01:39:04;14.40;99.90
21039;DHT22;10678;51.002;4.786;2023-03-23T01:41:30;14.40;99.90
21039;DHT22;10678;51.002;4.786;2023-03-23T01:46:29;14.30;99.90
21039;DHT22;10678;51.002;4.786;2023-03-23T01:48:57;14.20;99.90
21039;DHT22;10678;51.002;4.786;2023-03-23T01:51:24;14.30;99.90
21039;DHT22;10678;51.002;4.786;2023-03-23T01:53:57;14.30;99.90
21039;DHT22;10678;51.002;4.786;2023-03-23T01:56:28;14.40;99.90
21039;DHT22;10678;51.002;4.786;2023-03-23T01:58:58;14.30;99.90
21039;DHT22;10678;51.002;4.786;2023-03-23T02:01:24;14.30;99.90
21039;DHT22;10678;51.002;4.786;2023-03-23T02:03:54;14.20;99.90
21039;DHT22;10678;51.002;4.786;2023-03-23T02:06:21;14.20;99.90
21039;DHT22;10678;51.002;4.786;2023-03-23T02:08:49;14.20;99.90
21039;DHT22;10678;51.002;4.786;2023-03-23T02:11:16;14.30;99.90
21039;DHT22;10678;51.002;4.786;2023-03-23T02:13:43;14.20;99.90
21039;DHT22;10678;51.002;4.786;2023-03-23T02:16:30;14.10;99.90
21039;DHT22;10678;51.002;4.786;2023-03-23T02:26:59;14.20;99.90
21039;DHT22;10678;51.002;4.786;2023-03-23T02:35:16;14.20;99.90
21039;DHT22;10678;51.002;4.786;2023-03-23T02:37:50;14.30;99.90
21039;DHT22;10678;51.002;4.786;2023-03-23T02:40:20;14.30;99.90
21039;DHT22;10678;51.002;4.786;2023-03-23T02:42:50;14.20;99.90
21039;DHT22;10678;51.002;4.786;2023-03-23T02:45:17;14.20;99.90
21039;DHT22;10678;51.002;4.786;2023-03-23T02:47:45;14.20;99.90
21039;DHT22;10678;51.002;4.786;2023-03-23T02:50:14;14.10;99.90
21039;DHT22;10678;51.002;4.786;2023-03-23T02:52:41;14.10;99.90
21039;DHT22;10678;51.002;4.786;2023-03-23T02:55:08;14.10;99.90
21039;DHT22;10678;51.002;4.786;2023-03-23T02:57:37;14.20;99.90
21039;DHT22;10678;51.002;4.786;2023-03-23T03:00:05;14.30;99.90
21039;DHT22;10678;51.002;4.786;2023-03-23T03:02:36;14.20;99.90
21039;DHT22;10678;51.002;4.786;2023-03-23T03:08:00;14.20;99.90
21039;DHT22;10678;51.002;4.786;2023-03-23T03:15:41;14.20;99.90
21039;DHT22;10678;51.002;4.786;2023-03-23T03:18:22;14.10;99.90
21039;DHT22;10678;51.002;4.786;2023-03-23T03:20:54;14.10;99.90
21039;DHT22;10678;51.002;4.786;2023-03-23T03:23:23;14.20;99.90
21039;DHT22;10678;51.002;4.786;2023-03-23T03:25:52;14.30;99.90
21039;DHT22;10678;51.002;4.786;2023-03-23T03:28:24;14.20;99.90
21039;DHT22;10678;51.002;4.786;2023-03-23T03:30:54;14.10;99.90
21039;DHT22;10678;51.002;4.786;2023-03-23T03:33:22;14.10;99.90
21039;DHT22;10678;51.002;4.786;2023-03-23T03:35:54;14.00;99.90
21039;DHT22;10678;51.002;4.786;2023-03-23T03:38:20;14.00;99.90
21039;DHT22;10678;51.002;4.786;2023-03-23T03:40:46;14.10;99.90
21039;DHT22;10678;51.002;4.786;2023-03-23T03:43:11;14.20;99.90
21039;DHT22;10678;51.002;4.786;2023-03-23T03:45:37;14.30;99.90
21039;DHT22;10678;51.002;4.786;2023-03-23T03:48:03;14.20;99.90
21039;DHT22;10678;51.002;4.786;2023-03-23T03:50:29;14.20;99.90
21039;DHT22;10678;51.002;4.786;2023-03-23T03:52:55;14.10;99.90
21039;DHT22;10678;51.002;4.786;2023-03-23T03:55:20;14.20;99.90
21039;DHT22;10678;51.002;4.786;2023-03-23T03:57:47;14.10;99.90
21039;DHT22;10678;51.002;4.786;2023-03-23T04:00:13;14.20;99.90
21039;DHT22;10678;51.002;4.786;2023-03-23T04:02:45;14.20;99.90
21039;DHT22;10678;51.002;4.786;2023-03-23T04:05:13;14.20;99.90
21039;DHT22;10678;51.002;4.786;2023-03-23T04:07:39;14.20;99.90
21039;DHT22;10678;51.002;4.786;2023-03-23T04:10:06;14.10;99.90
21039;DHT22;10678;51.002;4.786;2023-03-23T04:12:32;14.20;99.90
21039;DHT22;10678;51.002;4.786;2023-03-23T04:14:58;14.20;99.90
21039;DHT22;10678;51.002;4.786;2023-03-23T04:17:23;14.20;99.90
21039;DHT22;10678;51.002;4.786;2023-03-23T04:19:52;14.20;99.90
21039;DHT22;10678;51.002;4.786;2023-03-23T04:22:17;14.10;99.90
21039;DHT22;10678;51.002;4.786;2023-03-23T04:24:43;14.20;99.90
21039;DHT22;10678;51.002;4.786;2023-03-23T04:27:09;14.10;99.90
21039;DHT22;10678;51.002;4.786;2023-03-23T04:29:34;14.10;99.90
21039;DHT22;10678;51.002;4.786;2023-03-23T04:32:00;14.20;99.90
21039;DHT22;10678;51.002;4.786;2023-03-23T04:34:27;14.10;99.90
21039;DHT22;10678;51.002;4.786;2023-03-23T04:36:52;14.20;99.90
21039;DHT22;10678;51.002;4.786;2023-03-23T04:39:18;14.20;99.90
21039;DHT22;10678;51.002;4.786;2023-03-23T04:41:44;14.30;99.90
21039;DHT22;10678;51.002;4.786;2023-03-23T04:44:11;14.20;99.90
21039;DHT22;10678;51.002;4.786;2023-03-23T04:46:43;14.20;99.90
21039;DHT22;10678;51.002;4.786;2023-03-23T04:49:10;14.10;99.90
21039;DHT22;10678;51.002;4.786;2023-03-23T04:51:36;14.00;99.90
21039;DHT22;10678;51.002;4.786;2023-03-23T04:54:01;13.90;99.90
21039;DHT22;10678;51.002;4.786;2023-03-23T04:56:27;14.00;99.90
21039;DHT22;10678;51.002;4.786;2023-03-23T04:58:52;14.10;99.90
21039;DHT22;10678;51.002;4.786;2023-03-23T05:01:18;14.20;99.90
21039;DHT22;10678;51.002;4.786;2023-03-23T05:03:44;14.20;99.90
21039;DHT22;10678;51.002;4.786;2023-03-23T05:06:10;14.20;99.90
21039;DHT22;10678;51.002;4.786;2023-03-23T05:08:36;14.00;99.90
21039;DHT22;10678;51.002;4.786;2023-03-23T05:11:05;14.00;99.90
21039;DHT22;10678;51.002;4.786;2023-03-23T05:13:31;14.00;99.90
21039;DHT22;10678;51.002;4.786;2023-03-23T05:15:57;13.90;99.90
21039;DHT22;10678;51.002;4.786;2023-03-23T05:18:23;14.00;99.90
21039;DHT22;10678;51.002;4.786;2023-03-23T05:20:49;14.00;99.90
21039;DHT22;10678;51.002;4.786;2023-03-23T05:23:18;14.00;99.90
21039;DHT22;10678;51.002;4.786;2023-03-23T05:25:52;13.90;99.90
21039;DHT22;10678;51.002;4.786;2023-03-23T05:28:18;13.70;99.90
21039;DHT22;10678;51.002;4.786;2023-03-23T05:30:44;13.70;99.90
21039;DHT22;10678;51.002;4.786;2023-03-23T05:33:09;13.80;99.90
21039;DHT22;10678;51.002;4.786;2023-03-23T05:35:35;13.80;99.90
21039;DHT22;10678;51.002;4.786;2023-03-23T05:38:01;13.80;99.90
21039;DHT22;10678;51.002;4.786;2023-03-23T05:40:27;13.80;99.90
21039;DHT22;10678;51.002;4.786;2023-03-23T05:42:53;13.80;99.90
21039;DHT22;10678;51.002;4.786;2023-03-23T05:45:21;13.60;99.90
21039;DHT22;10678;51.002;4.786;2023-03-23T05:47:48;13.70;99.90
21039;DHT22;10678;51.002;4.786;2023-03-23T05:50:13;13.80;99.90
21039;DHT22;10678;51.002;4.786;2023-03-23T05:52:39;13.80;99.90
21039;DHT22;10678;51.002;4.786;2023-03-23T05:55:05;13.80;99.90
21039;DHT22;10678;51.002;4.786;2023-03-23T05:57:31;13.90;99.90
21039;DHT22;10678;51.002;4.786;2023-03-23T05:59:57;13.80;99.90
21039;DHT22;10678;51.002;4.786;2023-03-23T06:02:24;13.80;99.90
21039;DHT22;10678;51.002;4.786;2023-03-23T06:04:50;13.70;99.90
21039;DHT22;10678;51.002;4.786;2023-03-23T06:07:23;13.80;99.90
21039;DHT22;10678;51.002;4.786;2023-03-23T06:09:50;13.70;99.90
21039;DHT22;10678;51.002;4.786;2023-03-23T06:12:16;13.70;99.90
21039;DHT22;10678;51.002;4.786;2023-03-23T06:14:48;13.70;99.90
21039;DHT22;10678;51.002;4.786;2023-03-23T06:17:15;13.60;99.90
21039;DHT22;10678;51.002;4.786;2023-03-23T06:19:43;13.60;99.90
21039;DHT22;10678;51.002;4.786;2023-03-23T06:22:09;13.90;99.90
21039;DHT22;10678;51.002;4.786;2023-03-23T06:24:36;13.80;99.90
21039;DHT22;10678;51.002;4.786;2023-03-23T06:27:01;13.70;99.90
21039;DHT22;10678;51.002;4.786;2023-03-23T06:29:27;13.80;99.90
21039;DHT22;10678;51.002;4.786;2023-03-23T06:31:56;13.90;99.90
21039;DHT22;10678;51.002;4.786;2023-03-23T06:34:23;14.00;99.90
21039;DHT22;10678;51.002;4.786;2023-03-23T06:36:48;13.90;99.90
21039;DHT22;10678;51.002;4.786;2023-03-23T06:39:14;14.00;99.90
21039;DHT22;10678;51.002;4.786;2023-03-23T06:41:39;14.10;99.90
21039;DHT22;10678;51.002;4.786;2023-03-23T06:44:05;14.10;99.90
21039;DHT22;10678;51.002;4.786;2023-03-23T06:46:32;14.20;99.90
21039;DHT22;10678;51.002;4.786;2023-03-23T06:48:57;14.00;99.90
21039;DHT22;10678;51.002;4.786;2023-03-23T06:51:24;14.00;99.90
21039;DHT22;10678;51.002;4.786;2023-03-23T06:53:50;13.90;99.90
21039;DHT22;10678;51.002;4.786;2023-03-23T06:56:16;14.00;99.90
21039;DHT22;10678;51.002;4.786;2023-03-23T06:58:41;14.10;99.90
21039;DHT22;10678;51.002;4.786;2023-03-23T07:01:08;14.10;99.90
21039;DHT22;10678;51.002;4.786;2023-03-23T07:03:35;14.00;99.90
21039;DHT22;10678;51.002;4.786;2023-03-23T07:06:00;14.10;99.90
21039;DHT22;10678;51.002;4.786;2023-03-23T07:08:26;14.30;99.90
21039;DHT22;10678;51.002;4.786;2023-03-23T07:10:55;14.20;99.90
21039;DHT22;10678;51.002;4.786;2023-03-23T07:13:22;14.10;99.90
21039;DHT22;10678;51.002;4.786;2023-03-23T07:15:48;14.00;99.90
21039;DHT22;10678;51.002;4.786;2023-03-23T07:18:14;13.80;99.90
21039;DHT22;10678;51.002;4.786;2023-03-23T07:20:40;13.70;99.90
21039;DHT22;10678;51.002;4.786;2023-03-23T07:23:06;13.30;99.90
21039;DHT22;10678;51.002;4.786;2023-03-23T07:25:32;12.90;99.90
21039;DHT22;10678;51.002;4.786;2023-03-23T07:27:59;12.50;99.90
21039;DHT22;10678;51.002;4.786;2023-03-23T07:30:26;12.30;99.90
21039;DHT22;10678;51.002;4.786;2023-03-23T07:32:52;12.10;99.90
21039;DHT22;10678;51.002;4.786;2023-03-23T07:35:18;11.90;99.90
21039;DHT22;10678;51.002;4.786;2023-03-23T07:37:44;12.00;99.90
21039;DHT22;10678;51.002;4.786;2023-03-23T07:40:10;11.90;99.90
21039;DHT22;10678;51.002;4.786;2023-03-23T07:42:45;11.80;99.90
21039;DHT22;10678;51.002;4.786;2023-03-23T07:45:12;11.90;99.90
21039;DHT22;10678;51.002;4.786;2023-03-23T07:47:39;11.90;99.90
21039;DHT22;10678;51.002;4.786;2023-03-23T07:50:05;11.70;99.90
21039;DHT22;10678;51.002;4.786;2023-03-23T07:52:32;11.70;99.90
21039;DHT22;10678;51.002;4.786;2023-03-23T07:54:58;11.60;99.90
21039;DHT22;10678;51.002;4.786;2023-03-23T07:57:23;11.50;99.90
21039;DHT22;10678;51.002;4.786;2023-03-23T07:59:49;11.40;99.90
21039;DHT22;10678;51.002;4.786;2023-03-23T08:02:15;11.40;99.90
21039;DHT22;10678;51.002;4.786;2023-03-23T08:04:40;11.30;99.90
21039;DHT22;10678;51.002;4.786;2023-03-23T08:07:08;11.40;99.90
21039;DHT22;10678;51.002;4.786;2023-03-23T08:09:33;11.40;99.90
21039;DHT22;10678;51.002;4.786;2023-03-23T08:11:59;11.40;99.90
21039;DHT22;10678;51.002;4.786;2023-03-23T08:14:24;11.50;99.90
21039;DHT22;10678;51.002;4.786;2023-03-23T08:16:53;11.50;99.90
21039;DHT22;10678;51.002;4.786;2023-03-23T08:19:21;11.70;99.90
21039;DHT22;10678;51.002;4.786;2023-03-23T08:21:47;11.90;99.90
21039;DHT22;10678;51.002;4.786;2023-03-23T08:24:14;11.90;99.90
21039;DHT22;10678;51.002;4.786;2023-03-23T08:26:39;12.10;99.90
21039;DHT22;10678;51.002;4.786;2023-03-23T08:29:05;12.30;99.90
21039;DHT22;10678;51.002;4.786;2023-03-23T08:31:31;12.50;99.90
21039;DHT22;10678;51.002;4.786;2023-03-23T08:34:00;12.70;99.90
21039;DHT22;10678;51.002;4.786;2023-03-23T08:36:26;12.90;99.90
21039;DHT22;10678;51.002;4.786;2023-03-23T08:38:52;12.90;99.90
21039;DHT22;10678;51.002;4.786;2023-03-23T08:41:18;12.80;99.90
21039;DHT22;10678;51.002;4.786;2023-03-23T08:43:44;12.70;99.90
21039;DHT22;10678;51.002;4.786;2023-03-23T08:46:10;12.80;99.90
21039;DHT22;10678;51.002;4.786;2023-03-23T08:48:37;12.90;99.90
21039;DHT22;10678;51.002;4.786;2023-03-23T08:51:05;13.00;99.90
21039;DHT22;10678;51.002;4.786;2023-03-23T08:53:30;13.10;99.90
21039;DHT22;10678;51.002;4.786;2023-03-23T08:56:02;13.00;99.90
21039;DHT22;10678;51.002;4.786;2023-03-23T08:58:28;13.10;99.90
21039;DHT22;10678;51.002;4.786;2023-03-23T09:00:54;13.10;99.90
21039;DHT22;10678;51.002;4.786;2023-03-23T09:03:20;13.20;99.90
21039;DHT22;10678;51.002;4.786;2023-03-23T09:05:45;13.50;99.90
21039;DHT22;10678;51.002;4.786;2023-03-23T09:08:12;13.80;99.90
21039;DHT22;10678;51.002;4.786;2023-03-23T09:10:38;14.00;99.90
21039;DHT22;10678;51.002;4.786;2023-03-23T09:13:04;13.50;99.90
21039;DHT22;10678;51.002;4.786;2023-03-23T09:15:30;13.60;99.90
21039;DHT22;10678;51.002;4.786;2023-03-23T09:17:56;13.50;99.90
21039;DHT22;10678;51.002;4.786;2023-03-23T09:20:27;13.70;99.90
21039;DHT22;10678;51.002;4.786;2023-03-23T09:22:54;13.60;99.90
21039;DHT22;10678;51.002;4.786;2023-03-23T09:25:22;13.80;99.90
21039;DHT22;10678;51.002;4.786;2023-03-23T09:27:56;13.80;99.90
21039;DHT22;10678;51.002;4.786;2023-03-23T09:30:32;14.00;99.90
21039;DHT22;10678;51.002;4.786;2023-03-23T09:33:00;13.90;99.90
21039;DHT22;10678;51.002;4.786;2023-03-23T09:35:27;13.70;99.90
21039;DHT22;10678;51.002;4.786;2023-03-23T09:37:53;13.80;99.90
21039;DHT22;10678;51.002;4.786;2023-03-23T09:40:22;13.80;99.90
21039;DHT22;10678;51.002;4.786;2023-03-23T09:48:44;14.40;99.90
21039;DHT22;10678;51.002;4.786;2023-03-23T09:54:20;18.20;99.90
21039;DHT22;10678;51.002;4.786;2023-03-23T09:56:47;19.00;99.90
21039;DHT22;10678;51.002;4.786;2023-03-23T09:59:19;18.90;99.90
21039;DHT22;10678;51.002;4.786;2023-03-23T10:01:51;19.00;99.90
21039;DHT22;10678;51.002;4.786;2023-03-23T10:04:30;19.00;99.90
21039;DHT22;10678;51.002;4.786;2023-03-23T10:06:59;19.00;99.90
21039;DHT22;10678;51.002;4.786;2023-03-23T10:09:25;20.10;99.90
21039;DHT22;10678;51.002;4.786;2023-03-23T10:14:59;20.10;99.90
21039;DHT22;10678;51.002;4.786;2023-03-23T10:17:35;20.20;99.90
21039;DHT22;10678;51.002;4.786;2023-03-23T10:25:35;20.20;99.90
21039;DHT22;10678;51.002;4.786;2023-03-23T10:28:51;19.60;99.90
21039;DHT22;10678;51.002;4.786;2023-03-23T10:30:56;19.60;99.90
21039;DHT22;10678;51.002;4.786;2023-03-23T10:33:41;20.10;99.90
21039;DHT22;10678;51.002;4.786;2023-03-23T10:36:27;20.60;99.90
21039;DHT22;10678;51.002;4.786;2023-03-23T10:39:06;20.80;99.90
21039;DHT22;10678;51.002;4.786;2023-03-23T10:41:35;21.10;99.90
21039;DHT22;10678;51.002;4.786;2023-03-23T10:44:04;21.40;99.90
21039;DHT22;10678;51.002;4.786;2023-03-23T10:49:20;22.20;99.90
21039;DHT22;10678;51.002;4.786;2023-03-23T10:52:00;21.20;99.90
21039;DHT22;10678;51.002;4.786;2023-03-23T10:54:36;20.20;99.90
21039;DHT22;10678;51.002;4.786;2023-03-23T10:59:47;19.00;99.90
21039;DHT22;10678;51.002;4.786;2023-03-23T11:02:18;18.60;99.90
21039;DHT22;10678;51.002;4.786;2023-03-23T11:05:07;18.50;99.90
21039;DHT22;10678;51.002;4.786;2023-03-23T11:07:39;18.70;99.90
21039;DHT22;10678;51.002;4.786;2023-03-23T11:10:15;18.60;99.90
21039;DHT22;10678;51.002;4.786;2023-03-23T11:12:45;18.40;99.90
21039;DHT22;10678;51.002;4.786;2023-03-23T11:15:28;18.50;99.90
21039;DHT22;10678;51.002;4.786;2023-03-23T11:18:49;18.80;99.90
21039;DHT22;10678;51.002;4.786;2023-03-23T11:20:56;19.20;99.90
21039;DHT22;10678;51.002;4.786;2023-03-23T11:23:28;19.30;99.90
21039;DHT22;10678;51.002;4.786;2023-03-23T11:28:21;20.00;99.90
21039;DHT22;10678;51.002;4.786;2023-03-23T11:30:47;20.00;99.90
21039;DHT22;10678;51.002;4.786;2023-03-23T11:33:13;20.20;99.90
21039;DHT22;10678;51.002;4.786;2023-03-23T11:35:44;20.60;99.90
21039;DHT22;10678;51.002;4.786;2023-03-23T11:38:18;20.50;99.90
21039;DHT22;10678;51.002;4.786;2023-03-23T11:40:48;21.70;99.90
21039;DHT22;10678;51.002;4.786;2023-03-23T11:43:19;23.20;99.90
21039;DHT22;10678;51.002;4.786;2023-03-23T11:46:09;24.40;99.90
21039;DHT22;10678;51.002;4.786;2023-03-23T11:49:01;24.80;99.90
21039;DHT22;10678;51.002;4.786;2023-03-23T11:54:21;23.80;99.90
21039;DHT22;10678;51.002;4.786;2023-03-23T11:56:49;24.70;99.90
21039;DHT22;10678;51.002;4.786;2023-03-23T11:59:18;24.80;99.90
21039;DHT22;10678;51.002;4.786;2023-03-23T12:01:54;24.30;99.90
21039;DHT22;10678;51.002;4.786;2023-03-23T12:12:51;26.10;99.90
21039;DHT22;10678;51.002;4.786;2023-03-23T12:15:26;25.10;99.90
21039;DHT22;10678;51.002;4.786;2023-03-23T12:26:05;21.90;99.90
21039;DHT22;10678;51.002;4.786;2023-03-23T12:31:25;22.00;99.90
21039;DHT22;10678;51.002;4.786;2023-03-23T12:34:23;23.70;99.90
21039;DHT22;10678;51.002;4.786;2023-03-23T12:37:25;25.50;99.90
21039;DHT22;10678;51.002;4.786;2023-03-23T12:50:32;33.10;82.20
21039;DHT22;10678;51.002;4.786;2023-03-23T12:53:41;32.60;80.60
21039;DHT22;10678;51.002;4.786;2023-03-23T12:56:28;30.90;77.50
21039;DHT22;10678;51.002;4.786;2023-03-23T12:59:13;28.60;84.30
21039;DHT22;10678;51.002;4.786;2023-03-23T13:01:45;27.70;87.00
21039;DHT22;10678;51.002;4.786;2023-03-23T13:04:21;26.70;90.70
21039;DHT22;10678;51.002;4.786;2023-03-23T13:06:48;25.90;90.80
21039;DHT22;10678;51.002;4.786;2023-03-23T13:09:38;25.70;92.30
21039;DHT22;10678;51.002;4.786;2023-03-23T13:12:07;26.10;92.70
21039;DHT22;10678;51.002;4.786;2023-03-23T13:18:01;26.40;92.70
21039;DHT22;10678;51.002;4.786;2023-03-23T13:20:48;27.70;92.40
21039;DHT22;10678;51.002;4.786;2023-03-23T13:23:33;26.70;91.00
21039;DHT22;10678;51.002;4.786;2023-03-23T13:26:20;25.50;93.10
21039;DHT22;10678;51.002;4.786;2023-03-23T13:29:15;23.90;96.60
21039;DHT22;10678;51.002;4.786;2023-03-23T13:31:43;22.90;99.90
21039;DHT22;10678;51.002;4.786;2023-03-23T13:39:23;20.40;99.90
21039;DHT22;10678;51.002;4.786;2023-03-23T13:50:00;20.30;99.90
21039;DHT22;10678;51.002;4.786;2023-03-23T13:52:51;20.20;99.90
21039;DHT22;10678;51.002;4.786;2023-03-23T13:55:19;20.20;99.90
21039;DHT22;10678;51.002;4.786;2023-03-23T13:57:56;20.00;99.90
21039;DHT22;10678;51.002;4.786;2023-03-23T14:05:40;19.90;99.90
21039;DHT22;10678;51.002;4.786;2023-03-23T14:08:11;19.80;99.90
21039;DHT22;10678;51.002;4.786;2023-03-23T14:10:44;20.00;99.90
21039;DHT22;10678;51.002;4.786;2023-03-23T14:13:15;19.90;99.90
21039;DHT22;10678;51.002;4.786;2023-03-23T14:16:04;19.60;99.90
21039;DHT22;10678;51.002;4.786;2023-03-23T14:18:39;19.60;99.90
21039;DHT22;10678;51.002;4.786;2023-03-23T14:21:13;19.60;99.90
21039;DHT22;10678;51.002;4.786;2023-03-23T14:23:39;19.80;99.90
21039;DHT22;10678;51.002;4.786;2023-03-23T14:26:11;19.90;99.90
21039;DHT22;10678;51.002;4.786;2023-03-23T14:28:43;19.60;99.90
21039;DHT22;10678;51.002;4.786;2023-03-23T14:31:25;19.50;99.90
21039;DHT22;10678;51.002;4.786;2023-03-23T14:33:53;19.40;99.90
21039;DHT22;10678;51.002;4.786;2023-03-23T14:36:28;19.60;99.90
21039;DHT22;10678;51.002;4.786;2023-03-23T14:39:22;19.00;99.90
21039;DHT22;10678;51.002;4.786;2023-03-23T14:41:49;19.10;99.90
21039;DHT22;10678;51.002;4.786;2023-03-23T14:44:22;19.00;99.90
21039;DHT22;10678;51.002;4.786;2023-03-23T14:46:49;19.00;99.90
21039;DHT22;10678;51.002;4.786;2023-03-23T14:49:24;19.10;99.90
21039;DHT22;10678;51.002;4.786;2023-03-23T14:51:53;19.20;99.90
21039;DHT22;10678;51.002;4.786;2023-03-23T14:54:28;19.10;99.90
21039;DHT22;10678;51.002;4.786;2023-03-23T14:57:03;18.80;99.90
21039;DHT22;10678;51.002;4.786;2023-03-23T14:59:34;18.70;99.90
21039;DHT22;10678;51.002;4.786;2023-03-23T15:02:00;18.70;99.90
21039;DHT22;10678;51.002;4.786;2023-03-23T15:04:27;18.50;99.90
21039;DHT22;10678;51.002;4.786;2023-03-23T15:07:00;18.30;99.90
21039;DHT22;10678;51.002;4.786;2023-03-23T15:09:27;18.30;99.90
21039;DHT22;10678;51.002;4.786;2023-03-23T15:12:02;18.10;99.90
21039;DHT22;10678;51.002;4.786;2023-03-23T15:14:46;17.90;99.90
21039;DHT22;10678;51.002;4.786;2023-03-23T15:17:24;17.50;99.90
21039;DHT22;10678;51.002;4.786;2023-03-23T15:19:51;17.30;99.90
21039;DHT22;10678;51.002;4.786;2023-03-23T15:22:24;17.20;99.90
21039;DHT22;10678;51.002;4.786;2023-03-23T15:24:52;17.30;99.90
21039;DHT22;10678;51.002;4.786;2023-03-23T15:27:28;17.60;99.90
21039;DHT22;10678;51.002;4.786;2023-03-23T15:29:57;17.80;99.90
21039;DHT22;10678;51.002;4.786;2023-03-23T15:32:31;17.70;99.90
21039;DHT22;10678;51.002;4.786;2023-03-23T15:35:09;17.70;99.90
21039;DHT22;10678;51.002;4.786;2023-03-23T15:37:45;17.50;99.90
21039;DHT22;10678;51.002;4.786;2023-03-23T15:40:20;17.40;99.90
21039;DHT22;10678;51.002;4.786;2023-03-23T15:42:47;17.60;99.90
21039;DHT22;10678;51.002;4.786;2023-03-23T15:45:26;17.70;99.90
21039;DHT22;10678;51.002;4.786;2023-03-23T15:47:52;17.70;99.90
21039;DHT22;10678;51.002;4.786;2023-03-23T15:52:53;17.90;99.90
21039;DHT22;10678;51.002;4.786;2023-03-23T15:57:46;17.70;99.90
21039;DHT22;10678;51.002;4.786;2023-03-23T16:00:12;17.50;99.90
21039;DHT22;10678;51.002;4.786;2023-03-23T16:02:38;17.60;99.90
21039;DHT22;10678;51.002;4.786;2023-03-23T16:05:04;17.70;99.90
21039;DHT22;10678;51.002;4.786;2023-03-23T16:07:29;17.70;99.90
21039;DHT22;10678;51.002;4.786;2023-03-23T16:09:55;17.60;99.90
21039;DHT22;10678;51.002;4.786;2023-03-23T16:12:21;17.40;99.90
21039;DHT22;10678;51.002;4.786;2023-03-23T16:14:46;17.20;99.90
21039;DHT22;10678;51.002;4.786;2023-03-23T16:17:17;17.10;99.90
21039;DHT22;10678;51.002;4.786;2023-03-23T16:19:43;17.10;99.90
21039;DHT22;10678;51.002;4.786;2023-03-23T16:22:08;17.10;99.90
21039;DHT22;10678;51.002;4.786;2023-03-23T16:24:34;16.70;99.90
21039;DHT22;10678;51.002;4.786;2023-03-23T16:27:00;16.80;99.90
21039;DHT22;10678;51.002;4.786;2023-03-23T16:29:25;16.70;99.90
21039;DHT22;10678;51.002;4.786;2023-03-23T16:31:52;16.80;99.90
21039;DHT22;10678;51.002;4.786;2023-03-23T16:34:17;16.90;99.90
21039;DHT22;10678;51.002;4.786;2023-03-23T16:36:43;16.90;99.90
21039;DHT22;10678;51.002;4.786;2023-03-23T16:39:11;17.00;99.90
21039;DHT22;10678;51.002;4.786;2023-03-23T16:41:36;17.00;99.90
21039;DHT22;10678;51.002;4.786;2023-03-23T16:44:02;17.00;99.90
21039;DHT22;10678;51.002;4.786;2023-03-23T16:46:28;17.00;99.90
21039;DHT22;10678;51.002;4.786;2023-03-23T16:48:54;16.90;99.90
21039;DHT22;10678;51.002;4.786;2023-03-23T16:51:20;16.90;99.90
21039;DHT22;10678;51.002;4.786;2023-03-23T16:53:47;16.80;99.90
21039;DHT22;10678;51.002;4.786;2023-03-23T16:56:13;16.70;99.90
21039;DHT22;10678;51.002;4.786;2023-03-23T16:58:39;16.50;99.90
21039;DHT22;10678;51.002;4.786;2023-03-23T17:01:06;16.50;99.90
21039;DHT22;10678;51.002;4.786;2023-03-23T17:03:31;16.50;99.90
21039;DHT22;10678;51.002;4.786;2023-03-23T17:05:58;16.40;99.90
21039;DHT22;10678;51.002;4.786;2023-03-23T17:08:24;16.30;99.90
21039;DHT22;10678;51.002;4.786;2023-03-23T17:10:50;16.30;99.90
21039;DHT22;10678;51.002;4.786;2023-03-23T17:13:16;16.00;99.90
21039;DHT22;10678;51.002;4.786;2023-03-23T17:15:42;16.00;99.90
21039;DHT22;10678;51.002;4.786;2023-03-23T17:18:08;15.90;99.90
21039;DHT22;10678;51.002;4.786;2023-03-23T17:20:34;15.80;99.90
21039;DHT22;10678;51.002;4.786;2023-03-23T17:23:00;15.80;99.90
21039;DHT22;10678;51.002;4.786;2023-03-23T17:25:27;15.80;99.90
21039;DHT22;10678;51.002;4.786;2023-03-23T17:27:55;15.70;99.90
21039;DHT22;10678;51.002;4.786;2023-03-23T17:30:20;15.50;99.90
21039;DHT22;10678;51.002;4.786;2023-03-23T17:32:46;15.50;99.90
21039;DHT22;10678;51.002;4.786;2023-03-23T17:35:13;15.40;99.90